createdAt,value
2022-10-24T00:01:22.415Z,22.26
2022-10-24T00:06:20.160Z,22.43
2022-10-24T00:08:47.459Z,21.08
2022-10-24T00:11:23.083Z,21.14
2022-10-24T00:13:51.226Z,21.40
2022-10-24T00:16:18.381Z,21.32
2022-10-24T00:18:45.316Z,21.01
2022-10-24T00:21:12.290Z,21.79
2022-10-24T00:27:12.367Z,21.64
2022-10-24T00:32:50.651Z,21.42
2022-10-24T00:35:17.768Z,22.14
2022-10-24T00:37:44.814Z,22.25
2022-10-24T00:40:15.121Z,22.32
2022-10-24T00:42:42.020Z,22.34
2022-10-24T00:45:47.701Z,22.11
2022-10-24T00:48:18.620Z,21.87
2022-10-24T00:50:46.571Z,22.59
2022-10-24T00:53:14.459Z,22.64
2022-10-24T00:55:41.363Z,22.37
2022-10-24T00:58:08.909Z,22.04
2022-10-24T01:00:36.334Z,21.83
2022-10-24T01:03:03.336Z,22.17
2022-10-24T01:05:37.872Z,21.51
2022-10-24T01:08:07.721Z,22.09
2022-10-24T01:11:36.149Z,21.92
2022-10-24T01:14:18.545Z,22.40
2022-10-24T01:16:51.937Z,21.82
2022-10-24T01:19:34.041Z,21.09
2022-10-24T01:22:06.402Z,21.02
2022-10-24T01:24:58.301Z,21.20
2022-10-24T01:27:36.652Z,21.49
2022-10-24T01:30:12.353Z,20.90
2022-10-24T01:32:41.541Z,21.47
2022-10-24T01:38:57.561Z,20.90
2022-10-24T01:41:26.648Z,20.97
2022-10-24T01:44:02.938Z,21.11
2022-10-24T01:46:35.373Z,20.81
2022-10-24T01:49:13.077Z,21.34
2022-10-24T01:51:40.171Z,20.83
2022-10-24T01:57:00.941Z,21.50
2022-10-24T01:59:30.640Z,21.99
2022-10-24T02:02:07.123Z,22.14
2022-10-24T02:04:38.047Z,20.99
2022-10-24T02:07:07.713Z,20.53
2022-10-24T02:09:35.910Z,20.99
2022-10-24T02:12:03.255Z,20.88
2022-10-24T02:14:53.988Z,20.81
2022-10-24T02:17:21.054Z,20.68
2022-10-24T02:19:48.489Z,20.96
2022-10-24T02:22:18.271Z,20.59
2022-10-24T02:24:48.058Z,21.18
2022-10-24T02:27:18.583Z,21.20
2022-10-24T02:30:12.472Z,21.75
2022-10-24T02:32:42.882Z,21.39
2022-10-24T02:35:12.134Z,21.69
2022-10-24T02:37:49.367Z,21.10
2022-10-24T02:40:18.421Z,21.84
2022-10-24T02:42:46.789Z,21.67
2022-10-24T02:45:15.797Z,21.75
2022-10-24T02:47:44.101Z,21.73
2022-10-24T02:50:11.334Z,22.50
2022-10-24T02:52:39.668Z,21.92
2022-10-24T02:55:07.081Z,22.04
2022-10-24T02:57:34.068Z,21.73
2022-10-24T03:00:00.925Z,22.02
2022-10-24T03:02:27.909Z,22.58
2022-10-24T03:04:54.805Z,22.02
2022-10-24T03:07:21.776Z,21.84
2022-10-24T03:09:48.701Z,21.96
2022-10-24T03:12:18.641Z,21.86
2022-10-24T03:17:13.327Z,20.58
2022-10-24T03:19:40.213Z,20.93
2022-10-24T03:22:07.068Z,19.71
2022-10-24T03:24:43.860Z,20.58
2022-10-24T03:27:20.797Z,21.34
2022-10-24T03:29:47.691Z,21.79
2022-10-24T03:32:14.800Z,21.70
2022-10-24T03:34:41.808Z,21.32
2022-10-24T03:37:08.669Z,21.43
2022-10-24T03:39:35.514Z,21.19
2022-10-24T03:42:02.430Z,21.17
2022-10-24T03:44:29.322Z,21.52
2022-10-24T03:46:56.157Z,21.71
2022-10-24T03:49:23.023Z,21.51
2022-10-24T03:51:49.894Z,21.62
2022-10-24T03:54:16.804Z,21.34
2022-10-24T03:56:44.282Z,21.09
2022-10-24T03:59:11.247Z,21.08
2022-10-24T04:01:38.221Z,20.87
2022-10-24T04:04:05.415Z,21.04
2022-10-24T04:06:35.548Z,20.88
2022-10-24T04:09:04.375Z,21.69
2022-10-24T04:11:31.500Z,22.04
2022-10-24T04:13:59.089Z,21.55
2022-10-24T04:16:26.042Z,21.73
2022-10-24T04:18:52.959Z,22.14
2022-10-24T04:21:21.742Z,21.52
2022-10-24T04:23:49.304Z,21.52
2022-10-24T04:26:16.973Z,21.71
2022-10-24T04:28:44.118Z,21.50
2022-10-24T04:31:11.046Z,21.45
2022-10-24T04:33:37.964Z,21.39
2022-10-24T04:36:44.922Z,20.85
2022-10-24T04:39:11.884Z,19.57
2022-10-24T04:41:38.751Z,20.41
2022-10-24T04:44:05.720Z,20.68
2022-10-24T04:46:32.815Z,18.35
2022-10-24T04:48:59.866Z,18.63
2022-10-24T04:51:26.867Z,18.26
2022-10-24T04:53:53.784Z,17.54
2022-10-24T04:56:20.764Z,17.62
2022-10-24T04:58:47.630Z,18.19
2022-10-24T05:01:14.845Z,17.88
2022-10-24T05:03:41.763Z,17.55
2022-10-24T05:06:08.707Z,17.81
2022-10-24T05:08:36.412Z,17.99
2022-10-24T05:11:03.742Z,17.26
2022-10-24T05:13:32.988Z,17.76
2022-10-24T05:16:03.555Z,18.58
2022-10-24T05:18:30.428Z,19.20
2022-10-24T05:20:58.775Z,19.56
2022-10-24T05:23:26.283Z,19.04
2022-10-24T05:25:53.534Z,19.61
2022-10-24T05:28:20.657Z,19.60
2022-10-24T05:30:47.505Z,19.79
2022-10-24T05:33:14.461Z,19.90
2022-10-24T05:35:41.973Z,20.31
2022-10-24T05:38:09.149Z,20.08
2022-10-24T05:40:36.044Z,20.61
2022-10-24T05:43:03.316Z,20.36
2022-10-24T05:45:30.151Z,20.38
2022-10-24T05:47:57.073Z,20.80
2022-10-24T05:50:23.941Z,21.06
2022-10-24T05:52:50.800Z,21.23
2022-10-24T05:55:18.429Z,21.54
2022-10-24T05:57:45.964Z,22.24
2022-10-24T06:00:14.902Z,21.57
2022-10-24T06:02:54.100Z,21.58
2022-10-24T06:05:21.366Z,20.91
2022-10-24T06:07:48.624Z,20.17
2022-10-24T06:10:18.864Z,21.50
2022-10-24T06:12:45.981Z,21.71
2022-10-24T06:15:13.763Z,21.84
2022-10-24T06:17:40.880Z,21.12
2022-10-24T06:20:08.422Z,21.16
2022-10-24T06:22:35.307Z,20.45
2022-10-24T06:25:02.255Z,21.09
2022-10-24T06:27:29.162Z,19.86
2022-10-24T06:29:56.002Z,20.63
2022-10-24T06:32:22.906Z,19.62
2022-10-24T06:34:50.715Z,19.03
2022-10-24T06:37:17.635Z,19.27
2022-10-24T06:39:44.530Z,19.08
2022-10-24T06:42:11.444Z,18.53
2022-10-24T06:44:38.833Z,19.40
2022-10-24T06:47:06.561Z,18.51
2022-10-24T06:49:33.815Z,17.74
2022-10-24T06:52:00.684Z,18.32
2022-10-24T06:54:41.346Z,18.67
2022-10-24T06:57:08.267Z,19.23
2022-10-24T06:59:35.128Z,18.63
2022-10-24T07:02:05.065Z,18.47
2022-10-24T07:04:50.752Z,17.58
2022-10-24T07:07:21.996Z,19.21
2022-10-24T07:09:57.589Z,19.43
2022-10-24T07:12:25.371Z,17.39
2022-10-24T07:14:53.261Z,19.58
2022-10-24T07:17:20.579Z,20.21
2022-10-24T07:19:53.595Z,20.39
2022-10-24T07:22:20.724Z,20.27
2022-10-24T07:24:55.384Z,20.54
2022-10-24T07:27:23.236Z,19.78
2022-10-24T07:29:51.783Z,21.07
2022-10-24T07:32:19.341Z,22.31
2022-10-24T07:34:58.448Z,21.72
2022-10-24T07:39:56.976Z,21.83
2022-10-24T07:42:23.896Z,21.82
2022-10-24T07:45:13.654Z,22.20
2022-10-24T07:47:40.627Z,22.66
2022-10-24T07:50:08.199Z,21.53
2022-10-24T07:52:35.059Z,20.71
2022-10-24T07:55:26.440Z,20.23
2022-10-24T07:57:53.418Z,19.83
2022-10-24T08:00:20.497Z,19.91
2022-10-24T08:05:23.016Z,18.96
2022-10-24T08:07:56.123Z,18.80
2022-10-24T08:10:32.637Z,18.60
2022-10-24T08:12:59.515Z,18.64
2022-10-24T08:15:28.558Z,19.30
2022-10-24T08:17:55.561Z,19.60
2022-10-24T08:20:24.308Z,19.17
2022-10-24T08:22:51.199Z,19.35
2022-10-24T08:25:18.154Z,19.32
2022-10-24T08:27:45.051Z,19.00
2022-10-24T08:30:12.454Z,19.18
2022-10-24T08:32:39.400Z,19.61
2022-10-24T08:35:07.810Z,19.90
2022-10-24T08:40:15.380Z,20.15
2022-10-24T08:42:42.326Z,18.84
2022-10-24T08:45:25.907Z,19.91
2022-10-24T08:48:07.534Z,20.11
2022-10-24T08:50:35.934Z,20.41
2022-10-24T08:53:15.716Z,20.02
2022-10-24T08:55:50.239Z,19.66
2022-10-24T08:58:29.484Z,19.74
2022-10-24T09:00:59.795Z,19.08
2022-10-24T09:04:00.299Z,18.98
2022-10-24T09:06:29.752Z,19.12
2022-10-24T09:09:08.511Z,18.82
2022-10-24T09:11:56.054Z,19.32
2022-10-24T09:14:33.287Z,18.07
2022-10-24T09:19:56.135Z,17.70
2022-10-24T09:22:24.764Z,18.65
2022-10-24T09:24:59.179Z,19.07
2022-10-24T09:27:31.352Z,19.11
2022-10-24T09:29:59.169Z,20.30
2022-10-24T09:32:30.799Z,21.29
2022-10-24T09:35:07.312Z,20.74
2022-10-24T09:37:44.301Z,20.79
2022-10-24T09:40:28.799Z,21.71
2022-10-24T09:43:04.773Z,21.46
2022-10-24T09:45:38.009Z,22.55
2022-10-24T09:48:26.035Z,20.38
2022-10-24T09:50:57.007Z,19.94
2022-10-24T09:53:39.672Z,21.84
2022-10-24T09:56:14.517Z,22.84
2022-10-24T09:58:42.179Z,21.46
2022-10-24T10:01:15.172Z,20.46
2022-10-24T10:03:42.642Z,21.38
2022-10-24T10:06:18.529Z,22.34
2022-10-24T10:08:54.343Z,21.74
2022-10-24T10:11:31.555Z,21.26
2022-10-24T10:14:01.673Z,20.05
2022-10-24T10:16:34.880Z,20.53
2022-10-24T10:19:05.636Z,21.03
2022-10-24T10:21:51.433Z,22.47
2022-10-24T10:24:37.877Z,23.43
2022-10-24T10:27:30.617Z,23.77
2022-10-24T10:30:21.022Z,24.34
2022-10-24T10:32:59.715Z,24.08
2022-10-24T10:39:16.304Z,24.11
2022-10-24T10:41:57.534Z,24.43
2022-10-24T10:44:49.512Z,24.62
2022-10-24T10:47:27.587Z,24.85
2022-10-24T10:49:57.576Z,24.80
2022-10-24T10:52:24.420Z,25.17
2022-10-24T10:54:51.207Z,25.19
2022-10-24T10:57:42.731Z,25.13
2022-10-24T11:00:16.975Z,25.78
2022-10-24T11:03:05.327Z,25.58
2022-10-24T11:05:50.237Z,25.02
2022-10-24T11:08:32.030Z,24.84
2022-10-24T11:11:04.834Z,25.80
2022-10-24T11:13:39.322Z,25.83
2022-10-24T11:16:13.958Z,26.16
2022-10-24T11:18:44.298Z,24.33
2022-10-24T11:21:13.662Z,26.12
2022-10-24T11:23:52.568Z,27.22
2022-10-24T11:26:33.301Z,27.24
2022-10-24T11:29:21.259Z,28.02
2022-10-24T11:31:55.656Z,28.09
2022-10-24T11:34:28.836Z,26.74
2022-10-24T11:37:01.452Z,26.31
2022-10-24T11:39:32.769Z,26.09
2022-10-24T11:42:33.197Z,26.19
2022-10-24T11:45:13.923Z,26.93
2022-10-24T11:48:03.079Z,25.94
2022-10-24T11:50:48.411Z,26.23
2022-10-24T11:53:28.850Z,26.37
2022-10-24T11:56:03.895Z,25.29
2022-10-24T11:58:31.817Z,24.39
2022-10-24T12:01:16.355Z,24.37
2022-10-24T12:04:05.574Z,23.98
2022-10-24T12:06:59.734Z,24.06
2022-10-24T12:09:45.394Z,24.00
2022-10-24T12:12:39.815Z,23.94
2022-10-24T12:15:47.648Z,24.75
2022-10-24T12:18:38.541Z,24.84
2022-10-24T12:21:15.148Z,24.90
2022-10-24T12:23:43.033Z,24.53
2022-10-24T12:26:21.540Z,24.40
2022-10-24T12:28:59.448Z,24.74
2022-10-24T12:31:31.296Z,24.57
2022-10-24T12:34:16.866Z,24.75
2022-10-24T12:37:31.026Z,24.70
2022-10-24T12:39:58.767Z,24.63
2022-10-24T12:42:25.674Z,24.76
2022-10-24T12:45:28.578Z,24.43
2022-10-24T12:50:28.996Z,24.18
2022-10-24T12:53:31.959Z,24.05
2022-10-24T12:55:58.751Z,24.64
2022-10-24T12:58:30.126Z,24.71
2022-10-24T13:01:26.197Z,24.95
2022-10-24T13:04:06.234Z,24.82
2022-10-24T13:07:05.832Z,25.12
2022-10-24T13:09:42.944Z,26.23
2022-10-24T13:12:36.407Z,26.95
2022-10-24T13:15:22.294Z,27.30
2022-10-24T13:18:00.023Z,26.97
2022-10-24T13:20:37.363Z,26.67
2022-10-24T13:23:27.099Z,27.21
2022-10-24T13:25:58.632Z,27.30
2022-10-24T13:28:25.432Z,27.20
2022-10-24T13:31:17.704Z,26.96
2022-10-24T13:33:45.908Z,27.56
2022-10-24T13:36:23.116Z,28.02
2022-10-24T13:39:00.755Z,27.50
2022-10-24T13:41:28.908Z,27.30
2022-10-24T13:43:59.518Z,27.54
2022-10-24T13:46:37.104Z,27.11
2022-10-24T13:49:05.256Z,26.55
2022-10-24T13:51:34.829Z,26.40
2022-10-24T13:54:07.681Z,26.68
2022-10-24T13:56:38.434Z,26.37
2022-10-24T13:59:05.313Z,26.29
2022-10-24T14:01:36.431Z,27.14
2022-10-24T14:04:03.450Z,27.26
2022-10-24T14:06:32.001Z,27.26
2022-10-24T14:09:07.491Z,27.01
2022-10-24T14:11:35.459Z,27.45
2022-10-24T14:14:07.205Z,27.20
2022-10-24T14:16:35.836Z,27.45
2022-10-24T14:19:29.548Z,27.38
2022-10-24T14:21:58.604Z,27.68
2022-10-24T14:24:26.082Z,27.58
2022-10-24T14:26:57.044Z,27.25
2022-10-24T14:29:27.834Z,27.44
2022-10-24T14:32:01.430Z,27.65
2022-10-24T14:34:35.197Z,27.74
2022-10-24T14:37:12.582Z,27.41
2022-10-24T14:39:39.817Z,27.10
2022-10-24T14:42:13.832Z,26.84
2022-10-24T14:44:42.159Z,26.92
2022-10-24T14:47:20.848Z,26.74
2022-10-24T14:49:47.968Z,27.39
2022-10-24T14:52:14.774Z,25.17
2022-10-24T14:54:44.249Z,24.56
2022-10-24T14:57:20.377Z,24.68
2022-10-24T14:59:48.390Z,24.79
2022-10-24T15:02:29.643Z,24.37
2022-10-24T15:05:16.624Z,24.97
2022-10-24T15:07:57.267Z,24.34
2022-10-24T15:10:36.696Z,24.89
2022-10-24T15:13:10.803Z,23.82
2022-10-24T15:15:47.956Z,24.69
2022-10-24T15:18:26.637Z,23.36
2022-10-24T15:21:01.729Z,23.36
2022-10-24T15:23:31.610Z,23.23
2022-10-24T15:26:12.423Z,23.21
2022-10-24T15:28:44.626Z,22.32
2022-10-24T15:31:15.997Z,22.69
2022-10-24T15:33:43.123Z,21.98
2022-10-24T15:36:24.457Z,22.88
2022-10-24T15:38:56.464Z,22.87
2022-10-24T15:41:23.639Z,22.40
2022-10-24T15:43:50.630Z,22.66
2022-10-24T15:46:17.550Z,22.96
2022-10-24T15:48:45.645Z,22.40
2022-10-24T15:51:15.711Z,21.97
2022-10-24T15:53:43.398Z,22.41
2022-10-24T15:56:11.892Z,22.40
2022-10-24T15:58:40.238Z,21.97
2022-10-24T16:01:08.718Z,22.37
2022-10-24T16:03:36.079Z,22.23
2022-10-24T16:06:04.599Z,22.38
2022-10-24T16:08:31.931Z,22.41
2022-10-24T16:10:58.805Z,21.37
2022-10-24T16:13:25.724Z,21.20
2022-10-24T16:15:52.792Z,20.97
2022-10-24T16:18:19.627Z,21.70
2022-10-24T16:20:46.808Z,22.04
2022-10-24T16:23:15.452Z,22.34
2022-10-24T16:25:43.627Z,22.14
2022-10-24T16:28:10.825Z,22.76
2022-10-24T16:30:39.179Z,22.46
2022-10-24T16:33:06.173Z,22.07
2022-10-24T16:35:35.130Z,22.30
2022-10-24T16:38:02.553Z,21.07
2022-10-24T16:40:29.953Z,21.10
2022-10-24T16:42:58.389Z,21.21
2022-10-24T16:45:25.981Z,21.56
2022-10-24T16:47:52.951Z,22.04
2022-10-24T16:50:24.908Z,22.16
2022-10-24T16:53:00.106Z,22.33
2022-10-24T16:55:27.989Z,22.35
2022-10-24T16:57:54.920Z,21.97
2022-10-24T17:00:22.714Z,21.58
2022-10-24T17:02:51.826Z,22.36
2022-10-24T17:05:20.773Z,21.17
2022-10-24T17:07:47.969Z,19.49
2022-10-24T17:10:18.391Z,21.12
2022-10-24T17:12:47.713Z,21.64
2022-10-24T17:15:18.094Z,21.55
2022-10-24T17:17:48.470Z,22.08
2022-10-24T17:20:15.907Z,21.76
2022-10-24T17:22:44.618Z,22.11
2022-10-24T17:25:19.584Z,20.44
2022-10-24T17:27:46.966Z,19.80
2022-10-24T17:30:22.328Z,20.62
2022-10-24T17:32:49.685Z,22.26
2022-10-24T17:35:19.051Z,21.54
2022-10-24T17:38:07.933Z,20.76
2022-10-24T17:40:42.949Z,21.82
2022-10-24T17:43:25.624Z,21.21
2022-10-24T17:45:54.870Z,20.65
2022-10-24T17:48:22.206Z,21.08
2022-10-24T17:50:49.498Z,20.53
2022-10-24T17:53:18.382Z,20.97
2022-10-24T17:55:47.034Z,20.39
2022-10-24T17:58:15.181Z,20.66
2022-10-24T18:00:42.181Z,21.05
2022-10-24T18:03:09.136Z,21.20
2022-10-24T18:05:38.504Z,19.51
2022-10-24T18:08:10.760Z,19.44
2022-10-24T18:10:41.042Z,20.10
2022-10-24T18:13:08.576Z,20.59
2022-10-24T18:15:36.387Z,20.48
2022-10-24T18:18:03.304Z,19.43
2022-10-24T18:20:30.393Z,17.93
2022-10-24T18:22:58.293Z,19.11
2022-10-24T18:25:25.161Z,20.32
2022-10-24T18:27:52.034Z,18.83
2022-10-24T18:30:19.693Z,19.27
2022-10-24T18:32:47.164Z,19.24
2022-10-24T18:35:14.455Z,18.84
2022-10-24T18:37:41.460Z,19.25
2022-10-24T18:40:09.641Z,19.51
2022-10-24T18:42:59.094Z,19.22
2022-10-24T18:45:27.498Z,19.35
2022-10-24T18:47:54.694Z,18.54
2022-10-24T18:50:23.833Z,19.90
2022-10-24T18:53:02.152Z,19.81
2022-10-24T18:55:31.500Z,19.27
2022-10-24T18:57:58.831Z,18.41
2022-10-24T19:00:31.688Z,19.53
2022-10-24T19:03:33.806Z,18.01
2022-10-24T19:06:15.806Z,19.54
2022-10-24T19:08:42.764Z,20.01
2022-10-24T19:13:42.420Z,20.42
2022-10-24T19:16:13.065Z,20.67
2022-10-24T19:18:40.617Z,20.54
2022-10-24T19:21:08.151Z,20.74
2022-10-24T19:23:34.994Z,21.57
2022-10-24T19:26:01.858Z,20.87
2022-10-24T19:28:28.718Z,20.63
2022-10-24T19:30:55.630Z,20.73
2022-10-24T19:33:25.153Z,20.91
2022-10-24T19:35:52.011Z,20.77
2022-10-24T19:38:19.321Z,21.05
2022-10-24T19:40:47.637Z,19.38
2022-10-24T19:43:14.475Z,20.28
2022-10-24T19:45:49.940Z,20.49
2022-10-24T19:48:17.853Z,20.18
2022-10-24T19:50:44.778Z,20.57
2022-10-24T19:53:14.388Z,20.83
2022-10-24T19:55:44.245Z,21.55
2022-10-24T19:58:11.835Z,21.52
2022-10-24T20:00:39.425Z,21.11
2022-10-24T20:03:06.318Z,21.24
2022-10-24T20:05:33.242Z,21.62
2022-10-24T20:08:00.218Z,21.56
2022-10-24T20:10:27.277Z,21.08
2022-10-24T20:12:54.140Z,20.29
2022-10-24T20:15:20.999Z,20.60
2022-10-24T20:17:47.872Z,20.39
2022-10-24T20:20:14.872Z,20.82
2022-10-24T20:22:41.759Z,20.77
2022-10-24T20:25:08.669Z,20.70
2022-10-24T20:27:38.913Z,22.03
2022-10-24T20:30:06.417Z,21.21
2022-10-24T20:32:33.259Z,21.23
2022-10-24T20:35:00.112Z,21.15
2022-10-24T20:37:26.985Z,21.92
2022-10-24T20:39:53.848Z,21.39
2022-10-24T20:42:22.378Z,21.37
2022-10-24T20:44:50.255Z,20.44
2022-10-24T20:47:17.101Z,18.50
2022-10-24T20:49:43.943Z,17.23
2022-10-24T20:54:42.506Z,17.74
2022-10-24T20:57:09.339Z,17.82
2022-10-24T20:59:36.197Z,19.70
2022-10-24T21:02:03.103Z,20.26
2022-10-24T21:04:30.206Z,20.65
2022-10-24T21:06:57.031Z,20.53
2022-10-24T21:09:23.939Z,20.79
2022-10-24T21:11:50.759Z,21.05
2022-10-24T21:14:20.834Z,20.68
2022-10-24T21:16:47.984Z,21.06
2022-10-24T21:19:14.833Z,20.42
2022-10-24T21:21:41.740Z,21.20
2022-10-24T21:24:08.739Z,21.33
2022-10-24T21:26:38.666Z,21.74
2022-10-24T21:29:31.803Z,21.84
2022-10-24T21:31:53.196Z,21.52
2022-10-24T21:34:20.249Z,20.64
2022-10-24T21:36:47.525Z,20.38
2022-10-24T21:39:15.565Z,20.45
2022-10-24T21:41:42.486Z,20.14
2022-10-24T21:44:09.356Z,19.55
2022-10-24T21:46:36.208Z,19.19
2022-10-24T21:49:03.105Z,19.07
2022-10-24T21:51:35.148Z,19.62
2022-10-24T21:54:04.402Z,20.62
2022-10-24T21:56:33.180Z,20.36
2022-10-24T22:01:32.346Z,20.57
2022-10-24T22:03:59.998Z,20.08
2022-10-24T22:06:28.132Z,20.31
2022-10-24T22:08:55.337Z,20.39
2022-10-24T22:11:24.861Z,20.68
2022-10-24T22:13:52.181Z,20.09
2022-10-24T22:16:21.719Z,20.98
2022-10-24T22:18:49.173Z,21.06
2022-10-24T22:21:27.629Z,20.86
2022-10-24T22:24:02.041Z,20.55
2022-10-24T22:26:29.794Z,20.48
2022-10-24T22:28:57.065Z,20.81
2022-10-24T22:31:25.626Z,20.89
2022-10-24T22:33:53.004Z,20.69
2022-10-24T22:36:47.874Z,21.37
2022-10-24T22:39:17.078Z,22.42
2022-10-24T22:41:44.871Z,22.00
2022-10-24T22:44:13.583Z,21.67
2022-10-24T22:47:18.020Z,21.93
2022-10-24T22:50:03.641Z,21.23
2022-10-24T22:52:30.701Z,22.13
2022-10-24T22:54:58.752Z,22.70
2022-10-24T22:57:25.973Z,22.29
2022-10-24T22:59:53.060Z,21.06
2022-10-24T23:02:29.200Z,21.31
2022-10-24T23:05:19.875Z,21.11
2022-10-24T23:08:00.003Z,20.45
2022-10-24T23:10:26.871Z,20.02
2022-10-24T23:12:54.094Z,19.86
2022-10-24T23:15:22.048Z,19.08
2022-10-24T23:17:50.149Z,18.54
2022-10-24T23:20:36.091Z,18.29
2022-10-24T23:23:15.984Z,18.09
2022-10-24T23:25:48.932Z,17.97
2022-10-24T23:28:20.016Z,18.00
2022-10-24T23:30:47.131Z,17.81
2022-10-24T23:33:22.793Z,17.90
2022-10-24T23:35:57.288Z,18.07
2022-10-24T23:38:24.502Z,17.85
2022-10-24T23:40:51.813Z,18.06
2022-10-24T23:43:21.145Z,18.45
2022-10-24T23:45:58.213Z,18.47
2022-10-24T23:48:50.150Z,18.26
2022-10-24T23:51:24.794Z,18.47
2022-10-24T23:53:55.541Z,17.88
2022-10-24T23:56:24.532Z,18.19
2022-10-24T23:58:51.793Z,18.08
